sensor_id;sensor_type;location;lat;lon;timestamp;P1;durP1;ratioP1;P2;durP2;ratioP2
74644;SDS011;63163;55.630;37.594;2024-03-08T00:00:27;6.900000;;;5.300000;;
74644;SDS011;63163;55.630;37.594;2024-03-08T00:01:28;7.600000;;;5.000000;;
74644;SDS011;63163;55.630;37.594;2024-03-08T00:02:28;7.400000;;;4.900000;;
74644;SDS011;63163;55.630;37.594;2024-03-08T00:03:29;6.700000;;;4.900000;;
74644;SDS011;63163;55.630;37.594;2024-03-08T00:04:30;7.600000;;;5.400000;;
74644;SDS011;63163;55.630;37.594;2024-03-08T00:05:31;6.500000;;;4.800000;;
74644;SDS011;63163;55.630;37.594;2024-03-08T00:06:31;6.200000;;;5.300000;;
74644;SDS011;63163;55.630;37.594;2024-03-08T00:07:32;7.500000;;;5.100000;;
74644;SDS011;63163;55.630;37.594;2024-03-08T00:08:33;6.500000;;;5.300000;;
74644;SDS011;63163;55.630;37.594;2024-03-08T00:09:33;8.300000;;;5.300000;;
74644;SDS011;63163;55.630;37.594;2024-03-08T00:10:34;6.800000;;;5.100000;;
74644;SDS011;63163;55.630;37.594;2024-03-08T00:11:34;6.600000;;;4.900000;;
74644;SDS011;63163;55.630;37.594;2024-03-08T00:12:35;8.400000;;;5.400000;;
74644;SDS011;63163;55.630;37.594;2024-03-08T00:13:35;7.000000;;;5.200000;;
74644;SDS011;63163;55.630;37.594;2024-03-08T00:14:36;6.500000;;;5.100000;;
74644;SDS011;63163;55.630;37.594;2024-03-08T00:15:37;7.500000;;;5.300000;;
74644;SDS011;63163;55.630;37.594;2024-03-08T00:16:38;8.700000;;;5.200000;;
74644;SDS011;63163;55.630;37.594;2024-03-08T00:17:38;7.000000;;;5.800000;;
74644;SDS011;63163;55.630;37.594;2024-03-08T00:18:39;8.700000;;;5.700000;;
74644;SDS011;63163;55.630;37.594;2024-03-08T00:19:40;6.300000;;;5.100000;;
74644;SDS011;63163;55.630;37.594;2024-03-08T00:20:41;8.200000;;;5.200000;;
74644;SDS011;63163;55.630;37.594;2024-03-08T00:21:42;7.600000;;;6.400000;;
74644;SDS011;63163;55.630;37.594;2024-03-08T00:22:42;8.100000;;;5.700000;;
74644;SDS011;63163;55.630;37.594;2024-03-08T00:23:43;8.900000;;;5.300000;;
74644;SDS011;63163;55.630;37.594;2024-03-08T00:24:44;6.900000;;;4.700000;;
74644;SDS011;63163;55.630;37.594;2024-03-08T00:25:45;6.600000;;;5.800000;;
74644;SDS011;63163;55.630;37.594;2024-03-08T00:26:46;6.700000;;;5.000000;;
74644;SDS011;63163;55.630;37.594;2024-03-08T00:27:46;6.200000;;;4.500000;;
74644;SDS011;63163;55.630;37.594;2024-03-08T00:28:49;7.400000;;;5.200000;;
74644;SDS011;63163;55.630;37.594;2024-03-08T00:29:50;6.600000;;;5.100000;;
74644;SDS011;63163;55.630;37.594;2024-03-08T00:30:50;6.600000;;;4.800000;;
74644;SDS011;63163;55.630;37.594;2024-03-08T00:31:51;8.400000;;;4.800000;;
74644;SDS011;63163;55.630;37.594;2024-03-08T00:32:51;6.100000;;;4.700000;;
74644;SDS011;63163;55.630;37.594;2024-03-08T00:33:52;6.800000;;;4.900000;;
74644;SDS011;63163;55.630;37.594;2024-03-08T00:34:52;7.600000;;;5.100000;;
74644;SDS011;63163;55.630;37.594;2024-03-08T00:35:54;7.800000;;;5.300000;;
74644;SDS011;63163;55.630;37.594;2024-03-08T00:36:54;6.400000;;;4.700000;;
74644;SDS011;63163;55.630;37.594;2024-03-08T00:37:55;5.900000;;;4.800000;;
74644;SDS011;63163;55.630;37.594;2024-03-08T00:38:57;7.200000;;;4.800000;;
74644;SDS011;63163;55.630;37.594;2024-03-08T00:39:57;7.600000;;;5.100000;;
74644;SDS011;63163;55.630;37.594;2024-03-08T00:40:57;7.500000;;;5.300000;;
74644;SDS011;63163;55.630;37.594;2024-03-08T00:41:58;7.400000;;;4.900000;;
74644;SDS011;63163;55.630;37.594;2024-03-08T00:42:59;6.200000;;;5.200000;;
74644;SDS011;63163;55.630;37.594;2024-03-08T00:43:59;7.000000;;;5.600000;;
74644;SDS011;63163;55.630;37.594;2024-03-08T00:45:00;6.900000;;;5.000000;;
74644;SDS011;63163;55.630;37.594;2024-03-08T00:46:01;7.700000;;;5.600000;;
74644;SDS011;63163;55.630;37.594;2024-03-08T00:47:01;7.500000;;;5.100000;;
74644;SDS011;63163;55.630;37.594;2024-03-08T00:48:03;7.400000;;;4.800000;;
74644;SDS011;63163;55.630;37.594;2024-03-08T00:49:05;6.600000;;;4.600000;;
74644;SDS011;63163;55.630;37.594;2024-03-08T00:50:07;6.600000;;;4.600000;;
74644;SDS011;63163;55.630;37.594;2024-03-08T00:51:08;6.900000;;;5.100000;;
74644;SDS011;63163;55.630;37.594;2024-03-08T00:52:09;6.200000;;;4.300000;;
74644;SDS011;63163;55.630;37.594;2024-03-08T00:53:09;6.600000;;;4.700000;;
74644;SDS011;63163;55.630;37.594;2024-03-08T00:54:11;6.600000;;;4.600000;;
74644;SDS011;63163;55.630;37.594;2024-03-08T00:55:11;7.400000;;;4.800000;;
74644;SDS011;63163;55.630;37.594;2024-03-08T00:56:12;8.100000;;;5.200000;;
74644;SDS011;63163;55.630;37.594;2024-03-08T00:57:13;6.600000;;;5.000000;;
74644;SDS011;63163;55.630;37.594;2024-03-08T00:58:13;6.400000;;;4.900000;;
74644;SDS011;63163;55.630;37.594;2024-03-08T00:59:13;6.000000;;;4.800000;;
74644;SDS011;63163;55.630;37.594;2024-03-08T01:00:14;6.700000;;;5.000000;;
74644;SDS011;63163;55.630;37.594;2024-03-08T01:01:15;6.500000;;;4.500000;;
74644;SDS011;63163;55.630;37.594;2024-03-08T01:02:16;6.500000;;;4.700000;;
74644;SDS011;63163;55.630;37.594;2024-03-08T01:03:19;6.000000;;;4.600000;;
74644;SDS011;63163;55.630;37.594;2024-03-08T01:04:19;7.300000;;;4.600000;;
74644;SDS011;63163;55.630;37.594;2024-03-08T01:05:21;6.300000;;;5.000000;;
74644;SDS011;63163;55.630;37.594;2024-03-08T01:06:23;6.500000;;;4.500000;;
74644;SDS011;63163;55.630;37.594;2024-03-08T01:07:24;6.200000;;;5.000000;;
74644;SDS011;63163;55.630;37.594;2024-03-08T01:08:25;6.000000;;;4.800000;;
74644;SDS011;63163;55.630;37.594;2024-03-08T01:09:25;6.200000;;;5.000000;;
74644;SDS011;63163;55.630;37.594;2024-03-08T01:10:27;5.500000;;;4.200000;;
74644;SDS011;63163;55.630;37.594;2024-03-08T01:11:27;5.400000;;;4.500000;;
74644;SDS011;63163;55.630;37.594;2024-03-08T01:12:28;6.300000;;;4.900000;;
74644;SDS011;63163;55.630;37.594;2024-03-08T01:13:29;6.800000;;;4.600000;;
74644;SDS011;63163;55.630;37.594;2024-03-08T01:14:30;7.500000;;;4.500000;;
74644;SDS011;63163;55.630;37.594;2024-03-08T01:15:31;6.000000;;;4.800000;;
74644;SDS011;63163;55.630;37.594;2024-03-08T01:16:31;6.900000;;;4.300000;;
74644;SDS011;63163;55.630;37.594;2024-03-08T01:17:33;7.400000;;;5.000000;;
74644;SDS011;63163;55.630;37.594;2024-03-08T01:18:34;6.100000;;;4.300000;;
74644;SDS011;63163;55.630;37.594;2024-03-08T01:19:34;6.300000;;;4.600000;;
74644;SDS011;63163;55.630;37.594;2024-03-08T01:20:35;6.700000;;;4.100000;;
74644;SDS011;63163;55.630;37.594;2024-03-08T01:21:36;5.100000;;;4.300000;;
74644;SDS011;63163;55.630;37.594;2024-03-08T01:22:36;5.900000;;;4.000000;;
74644;SDS011;63163;55.630;37.594;2024-03-08T01:23:37;6.200000;;;4.400000;;
74644;SDS011;63163;55.630;37.594;2024-03-08T01:24:37;6.400000;;;5.000000;;
74644;SDS011;63163;55.630;37.594;2024-03-08T01:25:38;6.600000;;;4.700000;;
74644;SDS011;63163;55.630;37.594;2024-03-08T01:26:39;5.800000;;;4.100000;;
74644;SDS011;63163;55.630;37.594;2024-03-08T01:27:40;6.900000;;;4.500000;;
74644;SDS011;63163;55.630;37.594;2024-03-08T01:28:40;5.500000;;;4.400000;;
74644;SDS011;63163;55.630;37.594;2024-03-08T01:29:41;5.900000;;;4.500000;;
74644;SDS011;63163;55.630;37.594;2024-03-08T01:30:41;6.600000;;;4.700000;;
74644;SDS011;63163;55.630;37.594;2024-03-08T01:31:43;5.900000;;;4.400000;;
74644;SDS011;63163;55.630;37.594;2024-03-08T01:32:43;6.500000;;;5.000000;;
74644;SDS011;63163;55.630;37.594;2024-03-08T01:33:44;6.800000;;;4.600000;;
74644;SDS011;63163;55.630;37.594;2024-03-08T01:34:44;6.800000;;;5.100000;;
74644;SDS011;63163;55.630;37.594;2024-03-08T01:35:45;6.400000;;;4.600000;;
74644;SDS011;63163;55.630;37.594;2024-03-08T01:36:46;5.800000;;;4.600000;;
74644;SDS011;63163;55.630;37.594;2024-03-08T01:37:46;6.400000;;;5.100000;;
74644;SDS011;63163;55.630;37.594;2024-03-08T01:38:48;5.600000;;;4.100000;;
74644;SDS011;63163;55.630;37.594;2024-03-08T01:39:48;6.300000;;;4.300000;;
74644;SDS011;63163;55.630;37.594;2024-03-08T01:40:49;6.300000;;;4.600000;;
74644;SDS011;63163;55.630;37.594;2024-03-08T01:41:49;7.300000;;;4.600000;;
74644;SDS011;63163;55.630;37.594;2024-03-08T01:42:50;6.100000;;;4.500000;;
74644;SDS011;63163;55.630;37.594;2024-03-08T01:43:50;6.600000;;;4.900000;;
74644;SDS011;63163;55.630;37.594;2024-03-08T01:44:51;6.700000;;;5.500000;;
74644;SDS011;63163;55.630;37.594;2024-03-08T01:45:51;5.900000;;;4.300000;;
74644;SDS011;63163;55.630;37.594;2024-03-08T01:46:52;6.100000;;;4.500000;;
74644;SDS011;63163;55.630;37.594;2024-03-08T01:47:53;6.200000;;;4.500000;;
74644;SDS011;63163;55.630;37.594;2024-03-08T01:48:54;5.900000;;;4.600000;;
74644;SDS011;63163;55.630;37.594;2024-03-08T01:49:54;6.700000;;;5.600000;;
74644;SDS011;63163;55.630;37.594;2024-03-08T01:50:55;6.700000;;;5.400000;;
74644;SDS011;63163;55.630;37.594;2024-03-08T01:51:56;7.500000;;;5.300000;;
74644;SDS011;63163;55.630;37.594;2024-03-08T01:52:56;7.400000;;;5.100000;;
74644;SDS011;63163;55.630;37.594;2024-03-08T01:54:00;6.200000;;;5.000000;;
74644;SDS011;63163;55.630;37.594;2024-03-08T01:55:02;6.100000;;;4.500000;;
74644;SDS011;63163;55.630;37.594;2024-03-08T01:56:04;5.800000;;;4.500000;;
74644;SDS011;63163;55.630;37.594;2024-03-08T01:57:05;6.100000;;;4.800000;;
74644;SDS011;63163;55.630;37.594;2024-03-08T01:58:06;6.800000;;;4.500000;;
74644;SDS011;63163;55.630;37.594;2024-03-08T01:59:09;6.900000;;;5.300000;;
74644;SDS011;63163;55.630;37.594;2024-03-08T02:00:10;7.000000;;;4.900000;;
74644;SDS011;63163;55.630;37.594;2024-03-08T02:01:12;6.200000;;;4.700000;;
74644;SDS011;63163;55.630;37.594;2024-03-08T02:02:15;6.100000;;;4.600000;;
74644;SDS011;63163;55.630;37.594;2024-03-08T02:03:17;6.300000;;;5.400000;;
74644;SDS011;63163;55.630;37.594;2024-03-08T02:04:18;6.600000;;;5.100000;;
74644;SDS011;63163;55.630;37.594;2024-03-08T02:05:18;7.300000;;;5.100000;;
74644;SDS011;63163;55.630;37.594;2024-03-08T02:06:19;6.600000;;;5.600000;;
74644;SDS011;63163;55.630;37.594;2024-03-08T02:07:19;7.500000;;;5.800000;;
74644;SDS011;63163;55.630;37.594;2024-03-08T02:08:20;6.900000;;;4.700000;;
74644;SDS011;63163;55.630;37.594;2024-03-08T02:09:22;6.900000;;;5.200000;;
74644;SDS011;63163;55.630;37.594;2024-03-08T02:10:25;8.200000;;;5.100000;;
74644;SDS011;63163;55.630;37.594;2024-03-08T02:11:25;7.300000;;;5.100000;;
74644;SDS011;63163;55.630;37.594;2024-03-08T02:12:26;8.300000;;;5.500000;;
74644;SDS011;63163;55.630;37.594;2024-03-08T02:13:26;6.300000;;;5.200000;;
74644;SDS011;63163;55.630;37.594;2024-03-08T02:14:27;7.300000;;;5.500000;;
74644;SDS011;63163;55.630;37.594;2024-03-08T02:15:43;6.800000;;;5.400000;;
74644;SDS011;63163;55.630;37.594;2024-03-08T02:16:49;6.700000;;;5.200000;;
74644;SDS011;63163;55.630;37.594;2024-03-08T02:17:51;8.200000;;;5.600000;;
74644;SDS011;63163;55.630;37.594;2024-03-08T02:18:53;8.100000;;;5.500000;;
74644;SDS011;63163;55.630;37.594;2024-03-08T02:19:54;6.300000;;;5.200000;;
74644;SDS011;63163;55.630;37.594;2024-03-08T02:20:54;6.700000;;;5.000000;;
74644;SDS011;63163;55.630;37.594;2024-03-08T02:21:55;8.500000;;;6.200000;;
74644;SDS011;63163;55.630;37.594;2024-03-08T02:22:56;7.300000;;;5.900000;;
74644;SDS011;63163;55.630;37.594;2024-03-08T02:23:56;8.000000;;;5.700000;;
74644;SDS011;63163;55.630;37.594;2024-03-08T02:24:57;7.500000;;;5.600000;;
74644;SDS011;63163;55.630;37.594;2024-03-08T02:25:58;7.400000;;;5.500000;;
74644;SDS011;63163;55.630;37.594;2024-03-08T02:26:59;7.400000;;;5.500000;;
74644;SDS011;63163;55.630;37.594;2024-03-08T02:27:59;7.000000;;;5.100000;;
74644;SDS011;63163;55.630;37.594;2024-03-08T02:29:00;8.100000;;;4.900000;;
74644;SDS011;63163;55.630;37.594;2024-03-08T02:30:01;8.100000;;;5.600000;;
74644;SDS011;63163;55.630;37.594;2024-03-08T02:31:01;7.500000;;;6.100000;;
74644;SDS011;63163;55.630;37.594;2024-03-08T02:32:02;6.300000;;;5.400000;;
74644;SDS011;63163;55.630;37.594;2024-03-08T02:33:03;9.300000;;;7.300000;;
74644;SDS011;63163;55.630;37.594;2024-03-08T02:34:04;7.700000;;;5.100000;;
74644;SDS011;63163;55.630;37.594;2024-03-08T02:35:05;7.800000;;;5.300000;;
74644;SDS011;63163;55.630;37.594;2024-03-08T02:36:06;7.700000;;;5.600000;;
74644;SDS011;63163;55.630;37.594;2024-03-08T02:37:07;6.200000;;;5.500000;;
74644;SDS011;63163;55.630;37.594;2024-03-08T02:38:08;7.400000;;;5.900000;;
74644;SDS011;63163;55.630;37.594;2024-03-08T02:39:09;6.800000;;;5.800000;;
74644;SDS011;63163;55.630;37.594;2024-03-08T02:40:11;6.800000;;;5.200000;;
74644;SDS011;63163;55.630;37.594;2024-03-08T02:41:12;7.700000;;;4.700000;;
74644;SDS011;63163;55.630;37.594;2024-03-08T02:42:13;7.100000;;;5.400000;;
74644;SDS011;63163;55.630;37.594;2024-03-08T02:43:14;7.600000;;;5.200000;;
74644;SDS011;63163;55.630;37.594;2024-03-08T02:44:14;8.100000;;;5.600000;;
74644;SDS011;63163;55.630;37.594;2024-03-08T02:45:15;6.200000;;;5.200000;;
74644;SDS011;63163;55.630;37.594;2024-03-08T02:46:15;7.100000;;;5.100000;;
74644;SDS011;63163;55.630;37.594;2024-03-08T02:47:16;7.600000;;;5.400000;;
74644;SDS011;63163;55.630;37.594;2024-03-08T02:48:16;8.100000;;;5.900000;;
74644;SDS011;63163;55.630;37.594;2024-03-08T02:49:17;7.500000;;;5.700000;;
74644;SDS011;63163;55.630;37.594;2024-03-08T02:50:18;8.700000;;;5.400000;;
74644;SDS011;63163;55.630;37.594;2024-03-08T02:51:18;7.700000;;;6.100000;;
74644;SDS011;63163;55.630;37.594;2024-03-08T02:52:20;8.500000;;;6.100000;;
74644;SDS011;63163;55.630;37.594;2024-03-08T02:53:21;6.700000;;;5.200000;;
74644;SDS011;63163;55.630;37.594;2024-03-08T02:54:22;6.700000;;;5.200000;;
74644;SDS011;63163;55.630;37.594;2024-03-08T02:55:24;7.200000;;;5.400000;;
74644;SDS011;63163;55.630;37.594;2024-03-08T02:56:26;8.100000;;;5.600000;;
74644;SDS011;63163;55.630;37.594;2024-03-08T02:57:26;7.200000;;;6.000000;;
74644;SDS011;63163;55.630;37.594;2024-03-08T02:58:27;6.800000;;;5.100000;;
74644;SDS011;63163;55.630;37.594;2024-03-08T02:59:28;8.700000;;;6.000000;;
74644;SDS011;63163;55.630;37.594;2024-03-08T03:00:29;7.700000;;;5.500000;;
74644;SDS011;63163;55.630;37.594;2024-03-08T03:01:30;8.600000;;;5.200000;;
74644;SDS011;63163;55.630;37.594;2024-03-08T03:02:33;7.300000;;;5.300000;;
74644;SDS011;63163;55.630;37.594;2024-03-08T03:03:33;7.700000;;;5.700000;;
74644;SDS011;63163;55.630;37.594;2024-03-08T03:04:34;7.500000;;;5.800000;;
74644;SDS011;63163;55.630;37.594;2024-03-08T03:05:35;7.000000;;;5.600000;;
74644;SDS011;63163;55.630;37.594;2024-03-08T03:06:35;7.800000;;;6.000000;;
74644;SDS011;63163;55.630;37.594;2024-03-08T03:07:36;8.400000;;;6.300000;;
74644;SDS011;63163;55.630;37.594;2024-03-08T03:08:37;8.500000;;;6.300000;;
74644;SDS011;63163;55.630;37.594;2024-03-08T03:09:38;8.900000;;;6.200000;;
74644;SDS011;63163;55.630;37.594;2024-03-08T03:10:39;7.400000;;;5.700000;;
74644;SDS011;63163;55.630;37.594;2024-03-08T03:11:39;8.700000;;;5.500000;;
74644;SDS011;63163;55.630;37.594;2024-03-08T03:12:40;9.200000;;;6.500000;;
74644;SDS011;63163;55.630;37.594;2024-03-08T03:13:40;6.800000;;;5.400000;;
74644;SDS011;63163;55.630;37.594;2024-03-08T03:14:42;8.100000;;;5.900000;;
74644;SDS011;63163;55.630;37.594;2024-03-08T03:15:43;6.900000;;;6.200000;;
74644;SDS011;63163;55.630;37.594;2024-03-08T03:16:43;8.000000;;;6.100000;;
74644;SDS011;63163;55.630;37.594;2024-03-08T03:17:45;9.900000;;;6.200000;;
74644;SDS011;63163;55.630;37.594;2024-03-08T03:18:46;8.200000;;;5.900000;;
74644;SDS011;63163;55.630;37.594;2024-03-08T03:19:47;7.500000;;;6.500000;;
74644;SDS011;63163;55.630;37.594;2024-03-08T03:20:47;8.500000;;;5.800000;;
74644;SDS011;63163;55.630;37.594;2024-03-08T03:21:49;8.700000;;;6.200000;;
74644;SDS011;63163;55.630;37.594;2024-03-08T03:22:49;9.600000;;;6.200000;;
74644;SDS011;63163;55.630;37.594;2024-03-08T03:23:52;6.200000;;;5.400000;;
74644;SDS011;63163;55.630;37.594;2024-03-08T03:24:53;8.700000;;;6.400000;;
74644;SDS011;63163;55.630;37.594;2024-03-08T03:25:53;8.100000;;;6.300000;;
74644;SDS011;63163;55.630;37.594;2024-03-08T03:26:57;7.400000;;;6.200000;;
74644;SDS011;63163;55.630;37.594;2024-03-08T03:27:57;8.600000;;;6.200000;;
74644;SDS011;63163;55.630;37.594;2024-03-08T03:28:58;8.300000;;;6.300000;;
74644;SDS011;63163;55.630;37.594;2024-03-08T03:30:01;7.400000;;;6.400000;;
74644;SDS011;63163;55.630;37.594;2024-03-08T03:31:21;10.100000;;;6.700000;;
74644;SDS011;63163;55.630;37.594;2024-03-08T03:32:24;9.100000;;;7.200000;;
74644;SDS011;63163;55.630;37.594;2024-03-08T03:33:24;8.400000;;;6.800000;;
74644;SDS011;63163;55.630;37.594;2024-03-08T03:34:25;8.200000;;;6.400000;;
74644;SDS011;63163;55.630;37.594;2024-03-08T03:35:25;8.400000;;;6.300000;;
74644;SDS011;63163;55.630;37.594;2024-03-08T03:36:26;8.500000;;;6.200000;;
74644;SDS011;63163;55.630;37.594;2024-03-08T03:37:28;7.600000;;;6.500000;;
74644;SDS011;63163;55.630;37.594;2024-03-08T03:38:28;8.500000;;;6.000000;;
74644;SDS011;63163;55.630;37.594;2024-03-08T03:39:29;7.600000;;;6.700000;;
74644;SDS011;63163;55.630;37.594;2024-03-08T03:40:32;8.600000;;;6.900000;;
74644;SDS011;63163;55.630;37.594;2024-03-08T03:41:32;9.200000;;;6.600000;;
74644;SDS011;63163;55.630;37.594;2024-03-08T03:42:33;10.700000;;;7.800000;;
74644;SDS011;63163;55.630;37.594;2024-03-08T03:43:34;7.900000;;;6.700000;;
74644;SDS011;63163;55.630;37.594;2024-03-08T03:44:34;9.800000;;;7.600000;;
74644;SDS011;63163;55.630;37.594;2024-03-08T03:45:35;8.200000;;;7.200000;;
74644;SDS011;63163;55.630;37.594;2024-03-08T03:46:35;8.100000;;;6.800000;;
74644;SDS011;63163;55.630;37.594;2024-03-08T03:47:36;9.300000;;;6.400000;;
74644;SDS011;63163;55.630;37.594;2024-03-08T03:48:38;10.000000;;;6.900000;;
74644;SDS011;63163;55.630;37.594;2024-03-08T03:49:38;9.400000;;;7.300000;;
74644;SDS011;63163;55.630;37.594;2024-03-08T03:50:39;9.300000;;;6.600000;;
74644;SDS011;63163;55.630;37.594;2024-03-08T03:51:39;9.000000;;;6.800000;;
74644;SDS011;63163;55.630;37.594;2024-03-08T03:52:40;8.400000;;;7.400000;;
74644;SDS011;63163;55.630;37.594;2024-03-08T03:53:42;9.600000;;;7.700000;;
74644;SDS011;63163;55.630;37.594;2024-03-08T03:54:42;11.100000;;;8.000000;;
74644;SDS011;63163;55.630;37.594;2024-03-08T03:55:43;8.200000;;;7.300000;;
74644;SDS011;63163;55.630;37.594;2024-03-08T03:56:44;8.500000;;;6.600000;;
74644;SDS011;63163;55.630;37.594;2024-03-08T03:57:45;8.700000;;;7.800000;;
74644;SDS011;63163;55.630;37.594;2024-03-08T03:58:46;8.400000;;;6.800000;;
74644;SDS011;63163;55.630;37.594;2024-03-08T03:59:46;9.300000;;;6.700000;;
74644;SDS011;63163;55.630;37.594;2024-03-08T04:00:48;9.900000;;;7.500000;;
74644;SDS011;63163;55.630;37.594;2024-03-08T04:01:48;8.700000;;;6.800000;;
74644;SDS011;63163;55.630;37.594;2024-03-08T04:02:49;9.800000;;;7.700000;;
74644;SDS011;63163;55.630;37.594;2024-03-08T04:03:51;9.100000;;;7.300000;;
74644;SDS011;63163;55.630;37.594;2024-03-08T04:04:52;10.900000;;;7.600000;;
74644;SDS011;63163;55.630;37.594;2024-03-08T04:05:52;8.800000;;;7.000000;;
74644;SDS011;63163;55.630;37.594;2024-03-08T04:06:53;9.800000;;;6.800000;;
74644;SDS011;63163;55.630;37.594;2024-03-08T04:07:54;9.400000;;;7.900000;;
74644;SDS011;63163;55.630;37.594;2024-03-08T04:08:55;8.000000;;;6.800000;;
74644;SDS011;63163;55.630;37.594;2024-03-08T04:09:55;8.100000;;;7.100000;;
74644;SDS011;63163;55.630;37.594;2024-03-08T04:10:56;8.600000;;;7.100000;;
74644;SDS011;63163;55.630;37.594;2024-03-08T04:11:56;10.100000;;;6.900000;;
74644;SDS011;63163;55.630;37.594;2024-03-08T04:12:57;8.300000;;;6.700000;;
74644;SDS011;63163;55.630;37.594;2024-03-08T04:13:57;8.600000;;;6.400000;;
74644;SDS011;63163;55.630;37.594;2024-03-08T04:14:58;8.000000;;;6.500000;;
74644;SDS011;63163;55.630;37.594;2024-03-08T04:15:59;8.600000;;;7.700000;;
74644;SDS011;63163;55.630;37.594;2024-03-08T04:17:00;7.800000;;;6.500000;;
74644;SDS011;63163;55.630;37.594;2024-03-08T04:18:00;7.900000;;;6.600000;;
74644;SDS011;63163;55.630;37.594;2024-03-08T04:19:01;9.000000;;;7.500000;;
74644;SDS011;63163;55.630;37.594;2024-03-08T04:20:04;9.800000;;;6.900000;;
74644;SDS011;63163;55.630;37.594;2024-03-08T04:21:09;9.000000;;;6.200000;;
74644;SDS011;63163;55.630;37.594;2024-03-08T04:22:10;9.500000;;;7.500000;;
74644;SDS011;63163;55.630;37.594;2024-03-08T04:23:10;7.300000;;;6.000000;;
74644;SDS011;63163;55.630;37.594;2024-03-08T04:24:11;9.600000;;;6.800000;;
74644;SDS011;63163;55.630;37.594;2024-03-08T04:25:12;8.000000;;;6.300000;;
74644;SDS011;63163;55.630;37.594;2024-03-08T04:26:12;10.900000;;;7.100000;;
74644;SDS011;63163;55.630;37.594;2024-03-08T04:27:13;7.100000;;;6.100000;;
74644;SDS011;63163;55.630;37.594;2024-03-08T04:28:14;7.800000;;;7.000000;;
74644;SDS011;63163;55.630;37.594;2024-03-08T04:29:15;8.500000;;;7.600000;;
74644;SDS011;63163;55.630;37.594;2024-03-08T04:30:16;9.000000;;;7.000000;;
74644;SDS011;63163;55.630;37.594;2024-03-08T04:31:16;8.500000;;;7.500000;;
74644;SDS011;63163;55.630;37.594;2024-03-08T04:32:17;8.800000;;;6.600000;;
74644;SDS011;63163;55.630;37.594;2024-03-08T04:33:17;8.000000;;;5.900000;;
74644;SDS011;63163;55.630;37.594;2024-03-08T04:34:18;8.000000;;;6.600000;;
74644;SDS011;63163;55.630;37.594;2024-03-08T04:35:19;7.900000;;;7.000000;;
74644;SDS011;63163;55.630;37.594;2024-03-08T04:36:20;7.800000;;;6.900000;;
74644;SDS011;63163;55.630;37.594;2024-03-08T04:37:21;7.200000;;;5.900000;;
74644;SDS011;63163;55.630;37.594;2024-03-08T04:38:22;7.700000;;;6.100000;;
74644;SDS011;63163;55.630;37.594;2024-03-08T04:39:22;8.200000;;;6.400000;;
74644;SDS011;63163;55.630;37.594;2024-03-08T04:40:23;7.500000;;;6.100000;;
74644;SDS011;63163;55.630;37.594;2024-03-08T04:41:23;8.100000;;;7.200000;;
74644;SDS011;63163;55.630;37.594;2024-03-08T04:42:24;9.700000;;;6.800000;;
74644;SDS011;63163;55.630;37.594;2024-03-08T04:43:25;8.400000;;;7.000000;;
74644;SDS011;63163;55.630;37.594;2024-03-08T04:44:26;9.200000;;;7.200000;;
74644;SDS011;63163;55.630;37.594;2024-03-08T04:45:27;7.700000;;;6.500000;;
74644;SDS011;63163;55.630;37.594;2024-03-08T04:46:28;8.100000;;;6.800000;;
74644;SDS011;63163;55.630;37.594;2024-03-08T04:47:28;7.800000;;;7.000000;;
74644;SDS011;63163;55.630;37.594;2024-03-08T04:48:29;9.200000;;;6.900000;;
74644;SDS011;63163;55.630;37.594;2024-03-08T04:49:29;9.000000;;;7.000000;;
74644;SDS011;63163;55.630;37.594;2024-03-08T04:50:30;8.900000;;;7.600000;;
74644;SDS011;63163;55.630;37.594;2024-03-08T04:51:30;7.700000;;;6.500000;;
74644;SDS011;63163;55.630;37.594;2024-03-08T04:52:31;8.000000;;;6.600000;;
74644;SDS011;63163;55.630;37.594;2024-03-08T04:53:31;9.800000;;;7.000000;;
74644;SDS011;63163;55.630;37.594;2024-03-08T04:54:33;9.100000;;;6.900000;;
74644;SDS011;63163;55.630;37.594;2024-03-08T04:55:34;8.400000;;;6.000000;;
74644;SDS011;63163;55.630;37.594;2024-03-08T04:56:35;8.600000;;;7.200000;;
74644;SDS011;63163;55.630;37.594;2024-03-08T04:57:35;8.200000;;;6.300000;;
74644;SDS011;63163;55.630;37.594;2024-03-08T04:58:36;9.100000;;;7.300000;;
74644;SDS011;63163;55.630;37.594;2024-03-08T04:59:36;10.300000;;;6.900000;;
74644;SDS011;63163;55.630;37.594;2024-03-08T05:00:37;9.200000;;;6.500000;;
74644;SDS011;63163;55.630;37.594;2024-03-08T05:01:37;8.500000;;;7.000000;;
74644;SDS011;63163;55.630;37.594;2024-03-08T05:02:38;8.900000;;;7.400000;;
74644;SDS011;63163;55.630;37.594;2024-03-08T05:03:39;8.000000;;;6.700000;;
74644;SDS011;63163;55.630;37.594;2024-03-08T05:04:40;10.100000;;;9.000000;;
74644;SDS011;63163;55.630;37.594;2024-03-08T05:05:40;9.100000;;;6.700000;;
74644;SDS011;63163;55.630;37.594;2024-03-08T05:06:41;9.100000;;;7.600000;;
74644;SDS011;63163;55.630;37.594;2024-03-08T05:07:41;9.200000;;;7.200000;;
74644;SDS011;63163;55.630;37.594;2024-03-08T05:08:45;9.300000;;;7.900000;;
74644;SDS011;63163;55.630;37.594;2024-03-08T05:09:46;9.700000;;;7.900000;;
74644;SDS011;63163;55.630;37.594;2024-03-08T05:10:51;10.800000;;;9.400000;;
74644;SDS011;63163;55.630;37.594;2024-03-08T05:11:52;9.600000;;;7.000000;;
74644;SDS011;63163;55.630;37.594;2024-03-08T05:12:52;11.100000;;;8.800000;;
74644;SDS011;63163;55.630;37.594;2024-03-08T05:13:53;11.100000;;;8.900000;;
74644;SDS011;63163;55.630;37.594;2024-03-08T05:14:53;9.800000;;;8.400000;;
74644;SDS011;63163;55.630;37.594;2024-03-08T05:15:54;9.900000;;;7.500000;;
74644;SDS011;63163;55.630;37.594;2024-03-08T05:16:58;12.000000;;;7.900000;;
74644;SDS011;63163;55.630;37.594;2024-03-08T05:17:58;10.700000;;;8.300000;;
74644;SDS011;63163;55.630;37.594;2024-03-08T05:18:59;10.100000;;;8.500000;;
74644;SDS011;63163;55.630;37.594;2024-03-08T05:20:00;10.500000;;;7.000000;;
74644;SDS011;63163;55.630;37.594;2024-03-08T05:21:01;11.200000;;;8.500000;;
74644;SDS011;63163;55.630;37.594;2024-03-08T05:22:04;8.700000;;;7.500000;;
74644;SDS011;63163;55.630;37.594;2024-03-08T05:23:04;9.900000;;;6.900000;;